createdAt,value
2023-01-20T00:01:27.914Z,99.90
2023-01-20T00:03:56.837Z,99.90
2023-01-20T00:06:25.658Z,99.90
2023-01-20T00:08:54.259Z,99.90
2023-01-20T00:11:22.789Z,99.90
2023-01-20T00:13:55.447Z,99.90
2023-01-20T00:16:23.852Z,99.90
2023-01-20T00:18:51.654Z,99.90
2023-01-20T00:21:19.241Z,99.90
2023-01-20T00:23:47.474Z,99.90
2023-01-20T00:26:18.417Z,99.90
2023-01-20T00:28:47.659Z,99.90
2023-01-20T00:31:20.806Z,99.90
2023-01-20T00:33:50.111Z,99.90
2023-01-20T00:36:19.776Z,99.90
2023-01-20T00:38:47.783Z,99.90
2023-01-20T00:41:16.057Z,99.90
2023-01-20T00:43:44.097Z,99.90
2023-01-20T00:46:12.603Z,99.90
2023-01-20T00:48:40.486Z,99.90
2023-01-20T00:51:09.417Z,99.90
2023-01-20T00:53:37.274Z,99.90
2023-01-20T00:56:05.989Z,99.90
2023-01-20T00:58:33.490Z,99.90
2023-01-20T01:01:01.911Z,99.90
2023-01-20T01:03:29.885Z,99.90
2023-01-20T01:06:15.073Z,99.90
2023-01-20T01:08:43.755Z,99.90
2023-01-20T01:11:12.243Z,99.90
2023-01-20T01:13:39.986Z,99.90
2023-01-20T01:16:16.701Z,99.90
2023-01-20T01:18:44.326Z,99.90
2023-01-20T01:21:14.653Z,99.90
2023-01-20T01:23:43.152Z,99.90
2023-01-20T01:26:11.251Z,99.90
2023-01-20T01:28:39.262Z,99.90
2023-01-20T01:31:08.638Z,99.90
2023-01-20T01:33:36.765Z,99.90
2023-01-20T01:36:05.341Z,99.90
2023-01-20T01:38:32.862Z,99.90
2023-01-20T01:41:01.229Z,99.90
2023-01-20T01:43:35.361Z,99.90
2023-01-20T01:46:03.818Z,99.90
2023-01-20T01:48:40.137Z,99.90
2023-01-20T01:51:26.026Z,99.90
2023-01-20T01:53:57.558Z,99.90
2023-01-20T01:56:27.298Z,99.90
2023-01-20T01:58:59.294Z,99.90
2023-01-20T02:01:28.675Z,99.90
2023-01-20T02:04:12.516Z,99.90
2023-01-20T02:06:50.863Z,99.90
2023-01-20T02:09:19.030Z,99.90
2023-01-20T02:11:51.379Z,99.90
2023-01-20T02:14:26.156Z,99.90
2023-01-20T02:17:05.757Z,99.90
2023-01-20T02:19:36.144Z,99.90
2023-01-20T02:22:06.714Z,99.90
2023-01-20T02:24:52.861Z,99.90
2023-01-20T02:27:24.042Z,99.90
2023-01-20T02:30:09.870Z,99.90
2023-01-20T02:33:05.836Z,99.90
2023-01-20T02:35:41.311Z,99.90
2023-01-20T02:38:26.395Z,99.90
2023-01-20T02:40:53.782Z,99.90
2023-01-20T02:43:44.478Z,99.90
2023-01-20T02:46:43.859Z,99.90
2023-01-20T02:49:17.388Z,99.90
2023-01-20T02:51:54.236Z,99.90
2023-01-20T02:54:24.771Z,99.90
2023-01-20T02:56:54.471Z,99.90
2023-01-20T02:59:26.196Z,99.90
2023-01-20T03:02:17.780Z,99.90
2023-01-20T03:04:57.659Z,99.90
2023-01-20T03:07:28.342Z,99.90
2023-01-20T03:09:58.897Z,99.90
2023-01-20T03:12:34.914Z,99.90
2023-01-20T03:15:02.875Z,99.90
2023-01-20T03:17:30.634Z,99.90
2023-01-20T03:19:58.095Z,99.90
2023-01-20T03:22:25.539Z,99.90
2023-01-20T03:24:54.306Z,99.90
2023-01-20T03:27:21.690Z,99.90
2023-01-20T03:29:49.116Z,99.90
2023-01-20T03:32:17.719Z,99.90
2023-01-20T03:34:45.493Z,99.90
2023-01-20T03:37:13.476Z,99.90
2023-01-20T03:39:41.078Z,99.90
2023-01-20T03:42:16.487Z,99.90
2023-01-20T03:45:00.637Z,99.90
2023-01-20T03:47:53.095Z,99.90
2023-01-20T03:50:26.420Z,99.90
2023-01-20T03:53:21.536Z,99.90
2023-01-20T03:56:04.429Z,99.90
2023-01-20T03:58:37.714Z,99.90
2023-01-20T04:01:18.752Z,99.90
2023-01-20T04:03:50.707Z,99.90
2023-01-20T04:06:21.319Z,99.90
2023-01-20T04:08:58.878Z,99.90
2023-01-20T04:11:27.337Z,99.90
2023-01-20T04:13:55.284Z,99.90
2023-01-20T04:16:24.348Z,99.90
2023-01-20T04:18:53.151Z,99.90
2023-01-20T04:21:45.531Z,99.90
2023-01-20T04:24:29.283Z,99.90
2023-01-20T04:26:56.817Z,99.90
2023-01-20T04:29:24.266Z,99.90
2023-01-20T04:31:58.805Z,99.90
2023-01-20T04:34:26.512Z,99.90
2023-01-20T04:36:54.077Z,99.90
2023-01-20T04:39:21.616Z,99.90
2023-01-20T04:41:49.482Z,99.90
2023-01-20T04:44:17.054Z,99.90
2023-01-20T04:46:45.519Z,99.90
2023-01-20T04:49:13.491Z,99.90
2023-01-20T04:51:41.020Z,99.90
2023-01-20T04:54:08.492Z,99.90
2023-01-20T04:56:35.950Z,99.90
2023-01-20T04:59:03.586Z,99.90
2023-01-20T05:01:31.251Z,99.90
2023-01-20T05:03:58.646Z,99.90
2023-01-20T05:06:26.302Z,99.90
2023-01-20T05:08:53.771Z,99.90
2023-01-20T05:11:21.237Z,99.90
2023-01-20T05:13:48.647Z,99.90
2023-01-20T05:16:21.832Z,99.90
2023-01-20T05:18:49.435Z,99.90
2023-01-20T05:21:17.042Z,99.90
2023-01-20T05:23:44.577Z,99.90
2023-01-20T05:26:12.032Z,99.90
2023-01-20T05:28:39.431Z,99.90
2023-01-20T05:31:07.118Z,99.90
2023-01-20T05:33:35.238Z,99.90
2023-01-20T05:36:10.373Z,99.90
2023-01-20T05:38:38.270Z,99.90
2023-01-20T05:41:08.431Z,99.90
2023-01-20T05:43:36.667Z,99.90
2023-01-20T05:46:05.104Z,99.90
2023-01-20T05:48:32.925Z,99.90
2023-01-20T05:51:00.447Z,99.90
2023-01-20T05:53:27.937Z,99.90
2023-01-20T05:56:00.836Z,99.90
2023-01-20T05:58:29.580Z,99.90
2023-01-20T06:01:08.907Z,99.90
2023-01-20T06:03:36.860Z,99.90
2023-01-20T06:06:07.202Z,99.90
2023-01-20T06:08:35.650Z,99.90
2023-01-20T06:11:03.368Z,99.90
2023-01-20T06:13:30.816Z,99.90
2023-01-20T06:15:58.415Z,99.90
2023-01-20T06:18:25.968Z,99.90
2023-01-20T06:20:58.756Z,99.90
2023-01-20T06:23:27.116Z,99.90
2023-01-20T06:26:09.009Z,99.90
2023-01-20T06:28:36.498Z,99.90
2023-01-20T06:31:14.985Z,99.90
2023-01-20T06:33:43.000Z,99.90
2023-01-20T06:36:13.821Z,99.90
2023-01-20T06:38:41.524Z,99.90
2023-01-20T06:41:10.946Z,99.90
2023-01-20T06:43:42.011Z,99.90
2023-01-20T06:46:15.570Z,99.90
2023-01-20T06:48:44.301Z,99.90
2023-01-20T06:51:20.356Z,99.90
2023-01-20T06:53:48.464Z,99.90
2023-01-20T06:56:16.360Z,99.90
2023-01-20T06:58:44.895Z,99.90
2023-01-20T07:01:30.263Z,99.90
2023-01-20T07:03:58.612Z,99.90
2023-01-20T07:06:34.955Z,99.90
2023-01-20T07:09:02.636Z,99.90
2023-01-20T07:11:31.484Z,99.90
2023-01-20T07:13:59.096Z,99.90
2023-01-20T07:16:26.691Z,99.90
2023-01-20T07:18:54.317Z,99.90
2023-01-20T07:21:23.501Z,99.90
2023-01-20T07:23:52.880Z,99.90
2023-01-20T07:26:22.623Z,99.90
2023-01-20T07:28:50.468Z,99.90
2023-01-20T07:31:20.491Z,99.90
2023-01-20T07:33:48.608Z,99.90
2023-01-20T07:36:17.115Z,99.90
2023-01-20T07:38:48.692Z,99.90
2023-01-20T07:41:18.167Z,99.90
2023-01-20T07:43:47.331Z,99.90
2023-01-20T07:46:15.103Z,99.90
2023-01-20T07:48:42.941Z,99.90
2023-01-20T07:51:12.979Z,99.90
2023-01-20T07:53:43.619Z,99.90
2023-01-20T07:56:16.338Z,99.90
2023-01-20T07:58:47.586Z,99.90
2023-01-20T08:01:27.656Z,99.90
2023-01-20T08:03:56.030Z,99.90
2023-01-20T08:06:26.151Z,99.90
2023-01-20T08:08:54.118Z,99.90
2023-01-20T08:11:22.703Z,99.90
2023-01-20T08:13:50.614Z,99.90
2023-01-20T08:16:18.689Z,99.90
2023-01-20T08:18:47.034Z,99.90
2023-01-20T08:21:30.658Z,99.90
2023-01-20T08:24:00.476Z,99.90
2023-01-20T08:26:29.848Z,99.90
2023-01-20T08:29:06.147Z,99.90
2023-01-20T08:31:34.174Z,99.90
2023-01-20T08:34:02.089Z,99.90
2023-01-20T08:36:32.301Z,99.90
2023-01-20T08:39:02.648Z,99.90
2023-01-20T08:41:33.919Z,99.90
2023-01-20T08:44:04.489Z,99.90
2023-01-20T08:46:32.107Z,99.90
2023-01-20T08:48:59.640Z,99.90
2023-01-20T08:51:29.975Z,99.90
2023-01-20T08:53:57.776Z,99.90
2023-01-20T08:56:25.422Z,99.90
2023-01-20T08:58:54.062Z,99.90
2023-01-20T09:01:26.966Z,99.90
2023-01-20T09:04:05.262Z,99.90
2023-01-20T09:06:46.046Z,99.90
2023-01-20T09:09:15.417Z,98.50
2023-01-20T09:11:50.532Z,98.80
2023-01-20T09:14:23.357Z,97.70
2023-01-20T09:16:51.428Z,97.90
2023-01-20T09:19:18.964Z,96.40
2023-01-20T09:21:46.373Z,97.50
2023-01-20T09:24:14.303Z,97.00
2023-01-20T09:26:41.892Z,96.50
2023-01-20T09:29:14.710Z,95.20
2023-01-20T09:31:46.372Z,96.00
2023-01-20T09:34:19.795Z,96.10
2023-01-20T09:36:55.433Z,95.90
2023-01-20T09:39:41.761Z,95.50
2023-01-20T09:42:42.445Z,96.80
2023-01-20T09:45:24.617Z,95.50
2023-01-20T09:48:15.371Z,96.00
2023-01-20T09:51:17.822Z,94.50
2023-01-20T09:54:01.994Z,95.00
2023-01-20T09:56:35.838Z,96.50
2023-01-20T09:59:12.462Z,95.50
2023-01-20T10:01:45.297Z,96.80
2023-01-20T10:04:21.794Z,95.10
2023-01-20T10:06:54.054Z,94.60
2023-01-20T10:09:28.796Z,94.80
2023-01-20T10:12:14.732Z,93.40
2023-01-20T10:14:47.017Z,95.10
2023-01-20T10:17:30.652Z,95.60
2023-01-20T10:20:13.079Z,98.30
2023-01-20T10:22:50.638Z,98.40
2023-01-20T10:25:23.948Z,95.00
2023-01-20T10:28:06.152Z,97.30
2023-01-20T10:30:36.621Z,94.30
2023-01-20T10:33:12.309Z,93.90
2023-01-20T10:35:45.476Z,94.10
2023-01-20T10:38:50.640Z,94.20
2023-01-20T10:41:27.107Z,94.40
2023-01-20T10:43:57.119Z,93.60
2023-01-20T10:46:39.466Z,94.10
2023-01-20T10:49:25.575Z,93.80
2023-01-20T10:52:04.803Z,96.60
2023-01-20T10:54:42.008Z,95.70
2023-01-20T10:57:14.169Z,93.60
2023-01-20T10:59:44.702Z,94.00
2023-01-20T11:02:21.323Z,95.40
2023-01-20T11:04:57.556Z,94.80
2023-01-20T11:07:26.165Z,94.60
2023-01-20T11:09:53.913Z,96.60
2023-01-20T11:12:25.665Z,95.80
2023-01-20T11:14:55.887Z,95.70
2023-01-20T11:17:23.433Z,95.80
2023-01-20T11:19:58.469Z,96.50
2023-01-20T11:22:37.675Z,95.40
2023-01-20T11:25:06.082Z,97.10
2023-01-20T11:27:45.895Z,97.30
2023-01-20T11:30:33.708Z,97.60
2023-01-20T11:33:19.713Z,98.30
2023-01-20T11:36:04.288Z,95.70
2023-01-20T11:38:42.761Z,97.80
2023-01-20T11:41:24.129Z,95.30
2023-01-20T11:43:55.469Z,96.60
2023-01-20T11:46:30.216Z,94.80
2023-01-20T11:49:18.113Z,96.90
2023-01-20T11:51:48.832Z,95.60
2023-01-20T11:54:22.951Z,96.30
2023-01-20T11:57:04.676Z,96.70
2023-01-20T11:59:37.307Z,95.30
2023-01-20T12:02:04.750Z,94.80
2023-01-20T12:05:07.570Z,94.50
2023-01-20T12:07:42.386Z,94.60
2023-01-20T12:10:19.112Z,95.20
2023-01-20T12:13:01.980Z,95.80
2023-01-20T12:15:36.038Z,93.10
2023-01-20T12:18:33.276Z,93.60
2023-01-20T12:21:19.997Z,94.30
2023-01-20T12:23:56.122Z,92.70
2023-01-20T12:26:25.438Z,95.40
2023-01-20T12:29:10.793Z,93.90
2023-01-20T12:31:38.315Z,94.20
2023-01-20T12:34:12.288Z,94.40
2023-01-20T12:36:58.567Z,93.60
2023-01-20T12:39:50.244Z,93.20
2023-01-20T12:42:38.803Z,92.00
2023-01-20T12:45:09.455Z,93.40
2023-01-20T12:47:46.334Z,93.60
2023-01-20T12:50:33.598Z,93.10
2023-01-20T12:53:14.844Z,93.30
2023-01-20T12:56:04.780Z,91.40
2023-01-20T12:58:52.775Z,92.60
2023-01-20T13:01:20.330Z,94.70
2023-01-20T13:04:15.729Z,93.40
2023-01-20T13:06:58.277Z,90.90
2023-01-20T13:09:48.851Z,93.70
2023-01-20T13:12:47.302Z,94.20
2023-01-20T13:15:27.184Z,92.70
2023-01-20T13:18:06.022Z,92.90
2023-01-20T13:20:35.943Z,92.30
2023-01-20T13:23:06.236Z,93.50
2023-01-20T13:25:35.246Z,93.00
2023-01-20T13:28:03.696Z,92.90
2023-01-20T13:30:38.629Z,93.70
2023-01-20T13:33:13.804Z,93.10
2023-01-20T13:35:49.607Z,92.50
2023-01-20T13:38:39.335Z,92.90
2023-01-20T13:41:07.184Z,92.30
2023-01-20T13:43:44.042Z,90.70
2023-01-20T13:46:15.807Z,93.10
2023-01-20T13:49:15.717Z,92.30
2023-01-20T13:51:45.067Z,92.00
2023-01-20T13:54:35.497Z,92.70
2023-01-20T13:57:24.838Z,91.80
2023-01-20T13:59:52.330Z,91.30
2023-01-20T14:02:28.492Z,91.60
2023-01-20T14:04:58.720Z,91.30
2023-01-20T14:07:30.889Z,91.80
2023-01-20T14:09:59.133Z,91.30
2023-01-20T14:12:27.313Z,92.50
2023-01-20T14:14:55.341Z,92.20
2023-01-20T14:17:24.811Z,93.50
2023-01-20T14:19:56.444Z,92.70
2023-01-20T14:22:32.430Z,93.30
2023-01-20T14:25:01.803Z,93.30
2023-01-20T14:27:32.312Z,93.80
2023-01-20T14:30:15.740Z,94.00
2023-01-20T14:32:43.528Z,92.90
2023-01-20T14:35:22.431Z,94.50
2023-01-20T14:37:51.955Z,93.20
2023-01-20T14:40:29.371Z,94.10
2023-01-20T14:42:58.966Z,94.60
2023-01-20T14:45:29.306Z,94.40
2023-01-20T14:47:58.925Z,95.10
2023-01-20T14:50:27.187Z,96.80
2023-01-20T14:52:54.865Z,97.40
2023-01-20T14:55:34.400Z,97.80
2023-01-20T14:58:08.503Z,97.60
2023-01-20T15:00:42.261Z,98.10
2023-01-20T15:03:30.067Z,98.10
2023-01-20T15:06:04.471Z,99.00
2023-01-20T15:08:34.924Z,99.40
2023-01-20T15:11:18.379Z,98.90
2023-01-20T15:13:54.780Z,98.50
2023-01-20T15:16:25.081Z,98.60
2023-01-20T15:19:23.226Z,98.80
2023-01-20T15:21:51.736Z,98.70
2023-01-20T15:24:32.533Z,98.40
2023-01-20T15:27:01.587Z,99.20
2023-01-20T15:29:28.971Z,99.00
2023-01-20T15:32:01.619Z,99.70
2023-01-20T15:34:29.703Z,99.90
2023-01-20T15:36:57.239Z,99.70
2023-01-20T15:39:29.401Z,99.80
2023-01-20T15:41:57.327Z,99.90
2023-01-20T15:44:25.667Z,99.90
2023-01-20T15:46:56.847Z,99.90
2023-01-20T15:49:25.616Z,99.90
2023-01-20T15:51:53.323Z,99.90
2023-01-20T15:54:20.764Z,99.90
2023-01-20T15:56:48.253Z,99.90
2023-01-20T15:59:18.301Z,99.90
2023-01-20T16:01:51.824Z,99.90
2023-01-20T16:04:20.580Z,99.90
2023-01-20T16:06:48.068Z,99.90
2023-01-20T16:09:22.163Z,99.90
2023-01-20T16:11:49.569Z,99.90
2023-01-20T16:14:17.089Z,99.90
2023-01-20T16:16:44.631Z,99.90
2023-01-20T16:19:16.096Z,99.90
2023-01-20T16:21:45.515Z,99.90
2023-01-20T16:24:13.524Z,99.90
2023-01-20T16:26:42.774Z,99.90
2023-01-20T16:29:10.311Z,99.90
2023-01-20T16:31:37.823Z,99.90
2023-01-20T16:34:05.360Z,99.90
2023-01-20T16:36:32.846Z,99.90
2023-01-20T16:39:00.372Z,99.90
2023-01-20T16:41:30.803Z,99.90
2023-01-20T16:43:58.640Z,99.90
2023-01-20T16:46:29.594Z,99.90
2023-01-20T16:49:01.995Z,99.90
2023-01-20T16:51:31.107Z,99.90
2023-01-20T16:53:59.701Z,99.90
2023-01-20T16:56:32.323Z,99.90
2023-01-20T16:59:02.011Z,99.90
2023-01-20T17:01:30.687Z,99.90
2023-01-20T17:04:00.265Z,99.90
2023-01-20T17:06:30.547Z,99.90
2023-01-20T17:08:59.529Z,99.90
2023-01-20T17:11:33.010Z,99.90
2023-01-20T17:14:05.819Z,99.90
2023-01-20T17:16:33.859Z,99.90
2023-01-20T17:19:01.704Z,99.90
2023-01-20T17:21:31.238Z,99.90
2023-01-20T17:24:03.547Z,99.90
2023-01-20T17:26:31.969Z,99.90
2023-01-20T17:29:04.728Z,99.90
2023-01-20T17:31:35.725Z,99.90
2023-01-20T17:34:05.073Z,99.90
2023-01-20T17:36:35.656Z,99.90
2023-01-20T17:39:04.278Z,99.90
2023-01-20T17:41:32.091Z,99.90
2023-01-20T17:43:59.923Z,99.90
2023-01-20T17:46:29.643Z,99.90
2023-01-20T17:48:58.338Z,99.90
2023-01-20T17:51:28.036Z,99.90
2023-01-20T17:53:57.080Z,99.90
2023-01-20T17:56:25.321Z,99.90
2023-01-20T17:58:53.972Z,99.90
2023-01-20T18:01:27.750Z,99.90
2023-01-20T18:03:56.857Z,99.90
2023-01-20T18:06:25.287Z,99.90
2023-01-20T18:08:57.623Z,99.90
2023-01-20T18:11:27.230Z,99.90
2023-01-20T18:13:56.377Z,99.90
2023-01-20T18:16:27.967Z,99.90
2023-01-20T18:18:58.796Z,99.90
2023-01-20T18:21:29.870Z,99.90
2023-01-20T18:23:58.163Z,99.90
2023-01-20T18:26:31.248Z,99.90
2023-01-20T18:29:01.108Z,99.90
2023-01-20T18:31:30.865Z,99.90
2023-01-20T18:34:00.851Z,99.90
2023-01-20T18:36:37.469Z,99.90
2023-01-20T18:39:07.732Z,99.90
2023-01-20T18:41:37.601Z,99.90
2023-01-20T18:44:05.744Z,99.90
2023-01-20T18:46:34.546Z,99.90
2023-01-20T18:49:02.820Z,99.90
2023-01-20T18:51:30.980Z,99.90
2023-01-20T18:54:07.904Z,99.90
2023-01-20T18:56:35.974Z,99.90
2023-01-20T18:59:04.981Z,99.90
2023-01-20T19:01:36.029Z,99.90
2023-01-20T19:04:04.720Z,99.90
2023-01-20T19:06:35.523Z,99.90
2023-01-20T19:09:04.527Z,99.90
2023-01-20T19:11:39.719Z,99.90
2023-01-20T19:14:11.589Z,99.90
2023-01-20T19:16:42.362Z,99.90
2023-01-20T19:19:11.117Z,99.90
2023-01-20T19:21:38.563Z,99.90
2023-01-20T19:24:07.929Z,99.90
2023-01-20T19:26:39.331Z,99.90
2023-01-20T19:29:10.855Z,99.90
2023-01-20T19:31:39.665Z,99.90
2023-01-20T19:34:09.164Z,99.90
2023-01-20T19:36:37.497Z,99.90
2023-01-20T19:39:05.392Z,99.90
2023-01-20T19:41:34.428Z,99.90
2023-01-20T19:44:04.485Z,99.90
2023-01-20T19:46:33.913Z,99.90
2023-01-20T19:49:02.497Z,99.90
2023-01-20T19:51:33.350Z,99.90
2023-01-20T19:54:02.272Z,99.90
2023-01-20T19:56:32.317Z,99.90
2023-01-20T19:59:01.143Z,99.90
2023-01-20T20:01:34.028Z,99.90
2023-01-20T20:04:09.456Z,99.90
2023-01-20T20:06:47.783Z,99.90
2023-01-20T20:09:21.292Z,99.90
2023-01-20T20:11:49.394Z,99.90
2023-01-20T20:14:19.400Z,99.90
2023-01-20T20:16:47.360Z,99.90
2023-01-20T20:19:18.177Z,99.90
2023-01-20T20:21:45.887Z,99.90
2023-01-20T20:24:15.181Z,99.90
2023-01-20T20:26:44.589Z,99.90
2023-01-20T20:29:14.614Z,99.90
2023-01-20T20:31:42.060Z,99.90
2023-01-20T20:34:13.043Z,99.90
2023-01-20T20:36:40.654Z,99.90
2023-01-20T20:39:08.313Z,99.90
2023-01-20T20:41:36.691Z,99.90
2023-01-20T20:44:04.563Z,99.90
2023-01-20T20:46:32.199Z,99.90
2023-01-20T20:49:01.169Z,99.90
2023-01-20T20:51:31.670Z,99.90
2023-01-20T20:54:01.894Z,99.90
2023-01-20T20:56:33.437Z,99.90
2023-01-20T20:59:03.326Z,99.90
2023-01-20T21:01:34.521Z,99.90
2023-01-20T21:04:03.248Z,99.90
2023-01-20T21:06:31.620Z,99.90
2023-01-20T21:08:59.163Z,99.80
2023-01-20T21:11:27.449Z,99.80
2023-01-20T21:13:55.437Z,99.90
2023-01-20T21:16:24.128Z,99.90
2023-01-20T21:18:53.734Z,99.90
2023-01-20T21:21:21.956Z,99.90
2023-01-20T21:23:57.629Z,99.90
2023-01-20T21:26:29.799Z,99.90
2023-01-20T21:29:01.650Z,99.90
2023-01-20T21:31:31.326Z,99.90
2023-01-20T21:34:00.407Z,99.90
2023-01-20T21:36:29.089Z,99.90
2023-01-20T21:38:57.799Z,99.90
2023-01-20T21:41:25.208Z,99.90
2023-01-20T21:44:11.179Z,99.90
2023-01-20T21:46:40.504Z,99.90
2023-01-20T21:49:26.938Z,99.90
2023-01-20T21:52:13.849Z,99.90
2023-01-20T21:54:41.857Z,99.90
2023-01-20T21:57:09.447Z,99.90
2023-01-20T21:59:37.438Z,99.90
2023-01-20T22:02:05.742Z,99.90
2023-01-20T22:04:33.384Z,99.90
2023-01-20T22:07:01.135Z,99.90
2023-01-20T22:09:28.616Z,99.90
2023-01-20T22:11:56.069Z,99.90
2023-01-20T22:14:23.501Z,99.90
2023-01-20T22:19:18.732Z,99.90
2023-01-20T22:21:46.143Z,99.90
2023-01-20T22:24:13.790Z,99.90
2023-01-20T22:26:41.546Z,99.90
2023-01-20T22:29:09.545Z,99.90
2023-01-20T22:31:37.113Z,99.90
2023-01-20T22:34:06.348Z,99.90
2023-01-20T22:36:34.341Z,99.90
2023-01-20T22:39:02.534Z,99.90
2023-01-20T22:41:30.350Z,99.90
2023-01-20T22:43:58.137Z,99.90
2023-01-20T22:46:27.623Z,99.90
2023-01-20T22:48:59.344Z,99.90
2023-01-20T22:51:29.359Z,99.90
2023-01-20T22:53:59.360Z,99.90
2023-01-20T22:56:29.662Z,99.90
2023-01-20T22:58:58.749Z,99.90
2023-01-20T23:01:31.708Z,99.90
2023-01-20T23:04:04.597Z,99.90
2023-01-20T23:06:34.315Z,99.90
2023-01-20T23:09:05.164Z,99.90
2023-01-20T23:11:33.996Z,99.90
2023-01-20T23:14:01.617Z,99.90
2023-01-20T23:16:29.180Z,99.90
2023-01-20T23:18:56.664Z,99.90
2023-01-20T23:21:24.531Z,99.90
2023-01-20T23:23:54.985Z,99.90
2023-01-20T23:26:25.354Z,99.90
2023-01-20T23:28:54.012Z,99.90
2023-01-20T23:31:23.759Z,99.90
2023-01-20T23:33:52.844Z,99.90
2023-01-20T23:36:23.255Z,99.90
2023-01-20T23:38:52.814Z,99.90
2023-01-20T23:41:20.331Z,99.90
2023-01-20T23:43:47.698Z,99.90
2023-01-20T23:46:15.307Z,99.90
2023-01-20T23:48:45.957Z,99.90
2023-01-20T23:51:13.888Z,99.90
2023-01-20T23:53:41.693Z,99.90
2023-01-20T23:56:17.952Z,99.90
2023-01-20T23:58:45.816Z,99.90
